sensor_id;sensor_type;location;lat;lon;timestamp;P1;durP1;ratioP1;P2;durP2;ratioP2
73593;SDS011;64760;53.404;23.498;2024-02-26T00:00:05;26.70;;;13.68;;
73593;SDS011;64760;53.404;23.498;2024-02-26T00:02:36;23.50;;;12.93;;
73593;SDS011;64760;53.404;23.498;2024-02-26T00:05:05;23.73;;;12.23;;
73593;SDS011;64760;53.404;23.498;2024-02-26T00:07:32;25.00;;;12.98;;
73593;SDS011;64760;53.404;23.498;2024-02-26T00:09:59;28.63;;;12.93;;
73593;SDS011;64760;53.404;23.498;2024-02-26T00:12:26;26.02;;;12.73;;
73593;SDS011;64760;53.404;23.498;2024-02-26T00:14:52;25.80;;;12.75;;
73593;SDS011;64760;53.404;23.498;2024-02-26T00:19:46;29.05;;;12.55;;
73593;SDS011;64760;53.404;23.498;2024-02-26T00:22:12;24.25;;;13.25;;
73593;SDS011;64760;53.404;23.498;2024-02-26T00:24:39;24.70;;;12.20;;
73593;SDS011;64760;53.404;23.498;2024-02-26T00:27:06;26.73;;;12.60;;
73593;SDS011;64760;53.404;23.498;2024-02-26T00:29:32;25.77;;;12.23;;
73593;SDS011;64760;53.404;23.498;2024-02-26T00:32:00;29.52;;;13.77;;
73593;SDS011;64760;53.404;23.498;2024-02-26T00:34:27;24.70;;;14.05;;
73593;SDS011;64760;53.404;23.498;2024-02-26T00:36:54;27.55;;;13.15;;
73593;SDS011;64760;53.404;23.498;2024-02-26T00:39:20;26.92;;;13.57;;
73593;SDS011;64760;53.404;23.498;2024-02-26T00:41:46;24.13;;;12.02;;
73593;SDS011;64760;53.404;23.498;2024-02-26T00:44:13;22.48;;;12.23;;
73593;SDS011;64760;53.404;23.498;2024-02-26T00:46:40;23.02;;;11.23;;
73593;SDS011;64760;53.404;23.498;2024-02-26T00:49:06;23.55;;;11.50;;
73593;SDS011;64760;53.404;23.498;2024-02-26T00:51:32;22.42;;;11.63;;
73593;SDS011;64760;53.404;23.498;2024-02-26T00:53:59;26.05;;;13.20;;
73593;SDS011;64760;53.404;23.498;2024-02-26T00:56:26;36.53;;;16.85;;
73593;SDS011;64760;53.404;23.498;2024-02-26T00:58:52;36.25;;;15.55;;
73593;SDS011;64760;53.404;23.498;2024-02-26T01:01:18;27.45;;;14.23;;
73593;SDS011;64760;53.404;23.498;2024-02-26T01:03:45;30.98;;;15.25;;
73593;SDS011;64760;53.404;23.498;2024-02-26T01:06:12;28.10;;;13.90;;
73593;SDS011;64760;53.404;23.498;2024-02-26T01:08:38;28.25;;;13.38;;
73593;SDS011;64760;53.404;23.498;2024-02-26T01:11:05;31.08;;;14.05;;
73593;SDS011;64760;53.404;23.498;2024-02-26T01:13:32;27.55;;;13.60;;
73593;SDS011;64760;53.404;23.498;2024-02-26T01:15:58;26.50;;;13.60;;
73593;SDS011;64760;53.404;23.498;2024-02-26T01:18:26;29.17;;;14.25;;
73593;SDS011;64760;53.404;23.498;2024-02-26T01:20:53;24.55;;;13.00;;
73593;SDS011;64760;53.404;23.498;2024-02-26T01:23:20;28.25;;;14.23;;
73593;SDS011;64760;53.404;23.498;2024-02-26T01:25:47;36.00;;;16.45;;
73593;SDS011;64760;53.404;23.498;2024-02-26T01:28:14;66.85;;;25.27;;
73593;SDS011;64760;53.404;23.498;2024-02-26T01:30:41;43.88;;;17.58;;
73593;SDS011;64760;53.404;23.498;2024-02-26T01:33:07;29.60;;;14.20;;
73593;SDS011;64760;53.404;23.498;2024-02-26T01:35:33;37.63;;;15.73;;
73593;SDS011;64760;53.404;23.498;2024-02-26T01:38:00;39.75;;;15.88;;
73593;SDS011;64760;53.404;23.498;2024-02-26T01:40:26;26.98;;;14.18;;
73593;SDS011;64760;53.404;23.498;2024-02-26T01:42:53;32.08;;;15.25;;
73593;SDS011;64760;53.404;23.498;2024-02-26T01:45:19;26.83;;;12.55;;
73593;SDS011;64760;53.404;23.498;2024-02-26T01:47:51;24.85;;;11.90;;
73593;SDS011;64760;53.404;23.498;2024-02-26T01:50:18;25.13;;;12.23;;
73593;SDS011;64760;53.404;23.498;2024-02-26T01:52:45;24.38;;;12.85;;
73593;SDS011;64760;53.404;23.498;2024-02-26T01:55:14;25.77;;;12.00;;
73593;SDS011;64760;53.404;23.498;2024-02-26T01:57:44;23.40;;;12.18;;
73593;SDS011;64760;53.404;23.498;2024-02-26T02:00:12;25.05;;;11.68;;
73593;SDS011;64760;53.404;23.498;2024-02-26T02:02:41;25.20;;;10.88;;
73593;SDS011;64760;53.404;23.498;2024-02-26T02:12:10;21.55;;;12.02;;
73593;SDS011;64760;53.404;23.498;2024-02-26T02:14:41;23.48;;;11.93;;
73593;SDS011;64760;53.404;23.498;2024-02-26T02:17:18;25.08;;;12.18;;
73593;SDS011;64760;53.404;23.498;2024-02-26T02:19:45;22.73;;;12.68;;
73593;SDS011;64760;53.404;23.498;2024-02-26T02:22:12;21.55;;;11.65;;
73593;SDS011;64760;53.404;23.498;2024-02-26T02:24:39;21.63;;;11.82;;
73593;SDS011;64760;53.404;23.498;2024-02-26T02:27:05;25.00;;;12.07;;
73593;SDS011;64760;53.404;23.498;2024-02-26T02:29:31;27.27;;;12.95;;
73593;SDS011;64760;53.404;23.498;2024-02-26T02:31:58;23.77;;;12.98;;
73593;SDS011;64760;53.404;23.498;2024-02-26T02:34:26;25.02;;;13.88;;
73593;SDS011;64760;53.404;23.498;2024-02-26T02:36:54;24.88;;;12.30;;
73593;SDS011;64760;53.404;23.498;2024-02-26T02:39:20;24.33;;;11.18;;
73593;SDS011;64760;53.404;23.498;2024-02-26T02:41:47;25.45;;;13.23;;
73593;SDS011;64760;53.404;23.498;2024-02-26T02:44:13;26.77;;;12.02;;
73593;SDS011;64760;53.404;23.498;2024-02-26T02:46:40;26.92;;;13.23;;
73593;SDS011;64760;53.404;23.498;2024-02-26T02:49:09;26.30;;;13.07;;
73593;SDS011;64760;53.404;23.498;2024-02-26T02:51:39;23.85;;;12.68;;
73593;SDS011;64760;53.404;23.498;2024-02-26T02:54:05;19.88;;;11.30;;
73593;SDS011;64760;53.404;23.498;2024-02-26T02:56:31;27.52;;;12.93;;
73593;SDS011;64760;53.404;23.498;2024-02-26T02:58:58;25.52;;;13.10;;
73593;SDS011;64760;53.404;23.498;2024-02-26T03:01:24;26.52;;;13.35;;
73593;SDS011;64760;53.404;23.498;2024-02-26T03:03:50;24.92;;;13.68;;
73593;SDS011;64760;53.404;23.498;2024-02-26T03:06:17;25.38;;;13.48;;
73593;SDS011;64760;53.404;23.498;2024-02-26T03:08:43;30.65;;;14.25;;
73593;SDS011;64760;53.404;23.498;2024-02-26T03:13:41;24.88;;;12.77;;
73593;SDS011;64760;53.404;23.498;2024-02-26T03:16:07;27.65;;;13.60;;
73593;SDS011;64760;53.404;23.498;2024-02-26T03:18:34;28.33;;;15.27;;
73593;SDS011;64760;53.404;23.498;2024-02-26T03:21:01;35.53;;;15.75;;
73593;SDS011;64760;53.404;23.498;2024-02-26T03:23:28;28.65;;;15.70;;
73593;SDS011;64760;53.404;23.498;2024-02-26T03:25:56;29.45;;;15.05;;
73593;SDS011;64760;53.404;23.498;2024-02-26T03:28:23;28.85;;;14.07;;
73593;SDS011;64760;53.404;23.498;2024-02-26T03:30:49;30.42;;;14.23;;
73593;SDS011;64760;53.404;23.498;2024-02-26T03:33:15;27.30;;;13.23;;
73593;SDS011;64760;53.404;23.498;2024-02-26T03:35:42;28.42;;;14.63;;
73593;SDS011;64760;53.404;23.498;2024-02-26T03:38:07;26.42;;;14.35;;
73593;SDS011;64760;53.404;23.498;2024-02-26T03:40:34;29.33;;;15.65;;
73593;SDS011;64760;53.404;23.498;2024-02-26T03:43:00;28.20;;;14.88;;
73593;SDS011;64760;53.404;23.498;2024-02-26T03:45:28;29.52;;;15.70;;
73593;SDS011;64760;53.404;23.498;2024-02-26T03:47:54;28.05;;;15.10;;
73593;SDS011;64760;53.404;23.498;2024-02-26T03:50:20;24.63;;;14.32;;
73593;SDS011;64760;53.404;23.498;2024-02-26T03:52:47;28.70;;;15.55;;
73593;SDS011;64760;53.404;23.498;2024-02-26T03:55:13;34.67;;;16.80;;
73593;SDS011;64760;53.404;23.498;2024-02-26T03:57:39;36.42;;;17.23;;
73593;SDS011;64760;53.404;23.498;2024-02-26T04:00:07;31.30;;;16.42;;
73593;SDS011;64760;53.404;23.498;2024-02-26T04:02:42;33.95;;;15.55;;
73593;SDS011;64760;53.404;23.498;2024-02-26T04:05:09;34.75;;;17.83;;
73593;SDS011;64760;53.404;23.498;2024-02-26T04:07:37;31.58;;;17.73;;
73593;SDS011;64760;53.404;23.498;2024-02-26T04:10:03;33.92;;;15.75;;
73593;SDS011;64760;53.404;23.498;2024-02-26T04:12:35;33.22;;;17.15;;
73593;SDS011;64760;53.404;23.498;2024-02-26T04:15:02;35.75;;;17.67;;
73593;SDS011;64760;53.404;23.498;2024-02-26T04:17:31;37.28;;;16.70;;
73593;SDS011;64760;53.404;23.498;2024-02-26T04:19:58;41.88;;;17.67;;
73593;SDS011;64760;53.404;23.498;2024-02-26T04:22:24;34.92;;;16.58;;
73593;SDS011;64760;53.404;23.498;2024-02-26T04:24:50;28.98;;;15.27;;
73593;SDS011;64760;53.404;23.498;2024-02-26T04:27:17;32.72;;;14.63;;
73593;SDS011;64760;53.404;23.498;2024-02-26T04:29:43;29.27;;;14.82;;
73593;SDS011;64760;53.404;23.498;2024-02-26T04:32:09;26.80;;;14.20;;
73593;SDS011;64760;53.404;23.498;2024-02-26T04:34:36;33.03;;;15.60;;
73593;SDS011;64760;53.404;23.498;2024-02-26T04:37:02;26.70;;;15.13;;
73593;SDS011;64760;53.404;23.498;2024-02-26T04:39:29;32.20;;;14.80;;
73593;SDS011;64760;53.404;23.498;2024-02-26T04:41:55;27.17;;;15.25;;
73593;SDS011;64760;53.404;23.498;2024-02-26T04:44:21;32.78;;;17.00;;
73593;SDS011;64760;53.404;23.498;2024-02-26T04:46:48;27.48;;;13.27;;
73593;SDS011;64760;53.404;23.498;2024-02-26T04:49:14;27.00;;;13.45;;
73593;SDS011;64760;53.404;23.498;2024-02-26T04:51:40;29.77;;;15.15;;
73593;SDS011;64760;53.404;23.498;2024-02-26T04:54:07;28.50;;;15.23;;
73593;SDS011;64760;53.404;23.498;2024-02-26T04:56:33;35.75;;;15.10;;
73593;SDS011;64760;53.404;23.498;2024-02-26T04:59:00;32.55;;;14.68;;
73593;SDS011;64760;53.404;23.498;2024-02-26T05:01:26;28.90;;;14.02;;
73593;SDS011;64760;53.404;23.498;2024-02-26T05:03:52;26.85;;;13.52;;
73593;SDS011;64760;53.404;23.498;2024-02-26T05:06:30;26.60;;;13.18;;
73593;SDS011;64760;53.404;23.498;2024-02-26T05:09:07;29.08;;;13.93;;
73593;SDS011;64760;53.404;23.498;2024-02-26T05:11:34;29.40;;;15.50;;
73593;SDS011;64760;53.404;23.498;2024-02-26T05:14:01;25.27;;;13.85;;
73593;SDS011;64760;53.404;23.498;2024-02-26T05:16:27;27.38;;;15.05;;
73593;SDS011;64760;53.404;23.498;2024-02-26T05:18:56;31.05;;;15.85;;
73593;SDS011;64760;53.404;23.498;2024-02-26T05:21:23;31.15;;;16.20;;
73593;SDS011;64760;53.404;23.498;2024-02-26T05:23:49;30.73;;;15.18;;
73593;SDS011;64760;53.404;23.498;2024-02-26T05:26:20;30.73;;;14.73;;
73593;SDS011;64760;53.404;23.498;2024-02-26T05:28:48;31.98;;;15.75;;
73593;SDS011;64760;53.404;23.498;2024-02-26T05:31:14;29.40;;;14.48;;
73593;SDS011;64760;53.404;23.498;2024-02-26T05:33:42;31.50;;;14.27;;
73593;SDS011;64760;53.404;23.498;2024-02-26T05:36:08;29.02;;;14.20;;
73593;SDS011;64760;53.404;23.498;2024-02-26T05:38:34;26.88;;;15.10;;
73593;SDS011;64760;53.404;23.498;2024-02-26T05:41:01;31.70;;;15.27;;
73593;SDS011;64760;53.404;23.498;2024-02-26T05:43:27;31.25;;;16.85;;
73593;SDS011;64760;53.404;23.498;2024-02-26T05:45:54;31.70;;;16.00;;
73593;SDS011;64760;53.404;23.498;2024-02-26T05:48:21;35.25;;;17.50;;
73593;SDS011;64760;53.404;23.498;2024-02-26T05:50:47;31.25;;;14.90;;
73593;SDS011;64760;53.404;23.498;2024-02-26T05:53:14;30.77;;;15.40;;
73593;SDS011;64760;53.404;23.498;2024-02-26T05:55:40;27.80;;;13.80;;
73593;SDS011;64760;53.404;23.498;2024-02-26T05:58:07;32.88;;;13.95;;
73593;SDS011;64760;53.404;23.498;2024-02-26T06:00:33;24.65;;;13.15;;
73593;SDS011;64760;53.404;23.498;2024-02-26T06:03:00;30.90;;;14.35;;
73593;SDS011;64760;53.404;23.498;2024-02-26T06:05:28;25.90;;;13.15;;
73593;SDS011;64760;53.404;23.498;2024-02-26T06:07:54;26.83;;;13.35;;
73593;SDS011;64760;53.404;23.498;2024-02-26T06:10:20;27.98;;;13.60;;
73593;SDS011;64760;53.404;23.498;2024-02-26T06:12:47;28.10;;;13.25;;
73593;SDS011;64760;53.404;23.498;2024-02-26T06:15:13;30.38;;;16.20;;
73593;SDS011;64760;53.404;23.498;2024-02-26T06:17:40;30.67;;;15.00;;
73593;SDS011;64760;53.404;23.498;2024-02-26T06:20:06;32.28;;;14.30;;
73593;SDS011;64760;53.404;23.498;2024-02-26T06:22:39;29.25;;;14.38;;
73593;SDS011;64760;53.404;23.498;2024-02-26T06:25:06;24.23;;;12.70;;
73593;SDS011;64760;53.404;23.498;2024-02-26T06:27:34;27.23;;;13.80;;
73593;SDS011;64760;53.404;23.498;2024-02-26T06:30:01;28.55;;;12.50;;
73593;SDS011;64760;53.404;23.498;2024-02-26T06:32:27;25.95;;;14.93;;
73593;SDS011;64760;53.404;23.498;2024-02-26T06:34:55;28.70;;;14.77;;
73593;SDS011;64760;53.404;23.498;2024-02-26T06:37:22;26.13;;;13.90;;
73593;SDS011;64760;53.404;23.498;2024-02-26T06:39:48;28.42;;;13.77;;
73593;SDS011;64760;53.404;23.498;2024-02-26T06:42:15;27.30;;;13.43;;
73593;SDS011;64760;53.404;23.498;2024-02-26T06:44:41;25.85;;;12.77;;
73593;SDS011;64760;53.404;23.498;2024-02-26T06:47:07;26.05;;;12.65;;
73593;SDS011;64760;53.404;23.498;2024-02-26T06:49:33;27.92;;;13.95;;
73593;SDS011;64760;53.404;23.498;2024-02-26T06:51:59;23.23;;;13.40;;
73593;SDS011;64760;53.404;23.498;2024-02-26T06:54:26;24.15;;;12.45;;
73593;SDS011;64760;53.404;23.498;2024-02-26T06:56:52;26.08;;;14.20;;
73593;SDS011;64760;53.404;23.498;2024-02-26T06:59:18;23.73;;;13.15;;
73593;SDS011;64760;53.404;23.498;2024-02-26T07:01:46;25.75;;;12.77;;
73593;SDS011;64760;53.404;23.498;2024-02-26T07:04:12;22.38;;;11.70;;
73593;SDS011;64760;53.404;23.498;2024-02-26T07:06:38;24.77;;;11.77;;
73593;SDS011;64760;53.404;23.498;2024-02-26T07:09:05;26.30;;;12.48;;
73593;SDS011;64760;53.404;23.498;2024-02-26T07:11:32;24.27;;;12.80;;
73593;SDS011;64760;53.404;23.498;2024-02-26T07:13:58;26.85;;;12.02;;
73593;SDS011;64760;53.404;23.498;2024-02-26T07:16:24;20.92;;;11.48;;
73593;SDS011;64760;53.404;23.498;2024-02-26T07:18:50;24.38;;;11.95;;
73593;SDS011;64760;53.404;23.498;2024-02-26T07:21:17;20.60;;;10.93;;
73593;SDS011;64760;53.404;23.498;2024-02-26T07:23:43;18.45;;;9.73;;
73593;SDS011;64760;53.404;23.498;2024-02-26T07:26:10;15.93;;;9.18;;
73593;SDS011;64760;53.404;23.498;2024-02-26T07:28:37;19.13;;;10.18;;
73593;SDS011;64760;53.404;23.498;2024-02-26T07:31:03;19.75;;;9.40;;
73593;SDS011;64760;53.404;23.498;2024-02-26T07:33:30;17.73;;;10.70;;
73593;SDS011;64760;53.404;23.498;2024-02-26T07:35:56;20.38;;;9.88;;
73593;SDS011;64760;53.404;23.498;2024-02-26T07:38:23;17.52;;;9.60;;
73593;SDS011;64760;53.404;23.498;2024-02-26T07:40:49;16.65;;;9.98;;
73593;SDS011;64760;53.404;23.498;2024-02-26T07:43:16;19.85;;;10.18;;
73593;SDS011;64760;53.404;23.498;2024-02-26T07:45:42;16.23;;;9.23;;
73593;SDS011;64760;53.404;23.498;2024-02-26T07:48:09;14.93;;;9.45;;
73593;SDS011;64760;53.404;23.498;2024-02-26T07:50:35;16.60;;;9.20;;
73593;SDS011;64760;53.404;23.498;2024-02-26T07:53:02;15.52;;;8.85;;
73593;SDS011;64760;53.404;23.498;2024-02-26T07:55:29;12.02;;;7.50;;
73593;SDS011;64760;53.404;23.498;2024-02-26T07:57:55;15.45;;;9.13;;
73593;SDS011;64760;53.404;23.498;2024-02-26T08:00:23;15.70;;;7.75;;
73593;SDS011;64760;53.404;23.498;2024-02-26T08:05:31;15.20;;;9.05;;
73593;SDS011;64760;53.404;23.498;2024-02-26T08:07:57;14.18;;;8.10;;
73593;SDS011;64760;53.404;23.498;2024-02-26T08:10:24;14.82;;;7.80;;
73593;SDS011;64760;53.404;23.498;2024-02-26T08:12:50;12.10;;;7.38;;
73593;SDS011;64760;53.404;23.498;2024-02-26T08:15:16;14.00;;;8.50;;
73593;SDS011;64760;53.404;23.498;2024-02-26T08:17:44;15.93;;;7.70;;
73593;SDS011;64760;53.404;23.498;2024-02-26T08:20:13;13.75;;;7.88;;
73593;SDS011;64760;53.404;23.498;2024-02-26T08:22:40;16.45;;;9.52;;
73593;SDS011;64760;53.404;23.498;2024-02-26T08:25:06;23.92;;;11.10;;
73593;SDS011;64760;53.404;23.498;2024-02-26T08:27:35;22.90;;;9.93;;
73593;SDS011;64760;53.404;23.498;2024-02-26T08:30:01;19.45;;;10.05;;
73593;SDS011;64760;53.404;23.498;2024-02-26T08:32:28;21.08;;;11.43;;
73593;SDS011;64760;53.404;23.498;2024-02-26T08:34:54;19.15;;;10.05;;
73593;SDS011;64760;53.404;23.498;2024-02-26T08:37:20;11.30;;;6.75;;
73593;SDS011;64760;53.404;23.498;2024-02-26T08:39:47;10.73;;;6.38;;
73593;SDS011;64760;53.404;23.498;2024-02-26T08:42:14;13.60;;;7.38;;
73593;SDS011;64760;53.404;23.498;2024-02-26T08:44:40;10.43;;;6.32;;
73593;SDS011;64760;53.404;23.498;2024-02-26T08:47:07;12.20;;;6.20;;
73593;SDS011;64760;53.404;23.498;2024-02-26T08:49:33;14.48;;;7.95;;
73593;SDS011;64760;53.404;23.498;2024-02-26T08:51:59;21.42;;;9.65;;
73593;SDS011;64760;53.404;23.498;2024-02-26T08:54:26;19.98;;;9.15;;
73593;SDS011;64760;53.404;23.498;2024-02-26T08:56:52;16.95;;;8.50;;
73593;SDS011;64760;53.404;23.498;2024-02-26T08:59:18;17.70;;;8.07;;
73593;SDS011;64760;53.404;23.498;2024-02-26T09:01:48;21.00;;;9.98;;
73593;SDS011;64760;53.404;23.498;2024-02-26T09:04:14;15.68;;;8.45;;
73593;SDS011;64760;53.404;23.498;2024-02-26T09:06:41;18.33;;;8.55;;
73593;SDS011;64760;53.404;23.498;2024-02-26T09:09:07;12.07;;;6.90;;
73593;SDS011;64760;53.404;23.498;2024-02-26T09:11:34;18.60;;;9.40;;
73593;SDS011;64760;53.404;23.498;2024-02-26T09:14:00;22.77;;;11.55;;
73593;SDS011;64760;53.404;23.498;2024-02-26T09:16:26;20.58;;;10.18;;
73593;SDS011;64760;53.404;23.498;2024-02-26T09:18:53;17.58;;;8.50;;
73593;SDS011;64760;53.404;23.498;2024-02-26T09:21:19;13.60;;;7.85;;
73593;SDS011;64760;53.404;23.498;2024-02-26T09:23:49;17.48;;;8.07;;
73593;SDS011;64760;53.404;23.498;2024-02-26T09:26:16;11.57;;;6.72;;
73593;SDS011;64760;53.404;23.498;2024-02-26T09:28:43;13.73;;;7.30;;
73593;SDS011;64760;53.404;23.498;2024-02-26T09:31:09;12.73;;;7.53;;
73593;SDS011;64760;53.404;23.498;2024-02-26T09:33:36;21.55;;;10.50;;
73593;SDS011;64760;53.404;23.498;2024-02-26T09:36:03;13.82;;;7.88;;
73593;SDS011;64760;53.404;23.498;2024-02-26T09:38:30;17.77;;;8.73;;
73593;SDS011;64760;53.404;23.498;2024-02-26T09:40:57;15.32;;;8.80;;
73593;SDS011;64760;53.404;23.498;2024-02-26T09:43:23;13.10;;;7.28;;
73593;SDS011;64760;53.404;23.498;2024-02-26T09:45:55;12.68;;;7.70;;
73593;SDS011;64760;53.404;23.498;2024-02-26T09:48:21;16.27;;;9.07;;
73593;SDS011;64760;53.404;23.498;2024-02-26T09:50:49;15.48;;;8.65;;
73593;SDS011;64760;53.404;23.498;2024-02-26T09:53:16;12.20;;;7.75;;
73593;SDS011;64760;53.404;23.498;2024-02-26T09:55:43;15.70;;;9.38;;
73593;SDS011;64760;53.404;23.498;2024-02-26T09:58:10;12.48;;;7.22;;
73593;SDS011;64760;53.404;23.498;2024-02-26T10:00:37;11.13;;;6.93;;
73593;SDS011;64760;53.404;23.498;2024-02-26T10:03:05;12.00;;;7.10;;
73593;SDS011;64760;53.404;23.498;2024-02-26T10:05:36;11.32;;;7.43;;
73593;SDS011;64760;53.404;23.498;2024-02-26T10:08:03;11.52;;;6.93;;
73593;SDS011;64760;53.404;23.498;2024-02-26T10:10:30;10.65;;;7.05;;
73593;SDS011;64760;53.404;23.498;2024-02-26T10:12:59;11.40;;;7.57;;
73593;SDS011;64760;53.404;23.498;2024-02-26T10:15:25;13.40;;;6.57;;
73593;SDS011;64760;53.404;23.498;2024-02-26T10:17:51;9.88;;;6.13;;
73593;SDS011;64760;53.404;23.498;2024-02-26T10:20:18;9.02;;;5.57;;
73593;SDS011;64760;53.404;23.498;2024-02-26T10:22:47;11.63;;;6.25;;
73593;SDS011;64760;53.404;23.498;2024-02-26T10:25:14;10.40;;;5.75;;
73593;SDS011;64760;53.404;23.498;2024-02-26T10:27:41;9.82;;;6.68;;
73593;SDS011;64760;53.404;23.498;2024-02-26T10:30:18;10.88;;;5.95;;
73593;SDS011;64760;53.404;23.498;2024-02-26T10:32:45;9.63;;;6.45;;
73593;SDS011;64760;53.404;23.498;2024-02-26T10:35:15;10.05;;;5.80;;
73593;SDS011;64760;53.404;23.498;2024-02-26T10:40:13;10.45;;;6.78;;
73593;SDS011;64760;53.404;23.498;2024-02-26T10:42:40;8.55;;;4.65;;
73593;SDS011;64760;53.404;23.498;2024-02-26T10:47:37;9.80;;;5.88;;
73593;SDS011;64760;53.404;23.498;2024-02-26T10:50:05;9.20;;;6.22;;
73593;SDS011;64760;53.404;23.498;2024-02-26T10:52:32;11.05;;;7.07;;
73593;SDS011;64760;53.404;23.498;2024-02-26T10:55:00;9.75;;;5.32;;
73593;SDS011;64760;53.404;23.498;2024-02-26T10:57:36;12.88;;;5.85;;
73593;SDS011;64760;53.404;23.498;2024-02-26T11:00:15;9.90;;;7.07;;
73593;SDS011;64760;53.404;23.498;2024-02-26T11:05:33;10.68;;;6.43;;
73593;SDS011;64760;53.404;23.498;2024-02-26T11:08:00;10.43;;;7.35;;
73593;SDS011;64760;53.404;23.498;2024-02-26T11:10:27;13.18;;;8.07;;
73593;SDS011;64760;53.404;23.498;2024-02-26T11:12:56;10.98;;;6.75;;
73593;SDS011;64760;53.404;23.498;2024-02-26T11:15:25;12.95;;;7.20;;
73593;SDS011;64760;53.404;23.498;2024-02-26T11:17:52;12.98;;;6.70;;
73593;SDS011;64760;53.404;23.498;2024-02-26T11:20:19;11.60;;;6.70;;
73593;SDS011;64760;53.404;23.498;2024-02-26T11:22:46;14.45;;;7.95;;
73593;SDS011;64760;53.404;23.498;2024-02-26T11:25:12;14.48;;;8.18;;
73593;SDS011;64760;53.404;23.498;2024-02-26T11:27:50;19.73;;;10.02;;
73593;SDS011;64760;53.404;23.498;2024-02-26T11:30:23;11.65;;;7.68;;
73593;SDS011;64760;53.404;23.498;2024-02-26T11:32:51;10.35;;;6.43;;
73593;SDS011;64760;53.404;23.498;2024-02-26T11:35:19;12.25;;;7.28;;
73593;SDS011;64760;53.404;23.498;2024-02-26T11:37:55;22.60;;;12.23;;
73593;SDS011;64760;53.404;23.498;2024-02-26T11:40:25;14.10;;;8.57;;
73593;SDS011;64760;53.404;23.498;2024-02-26T11:42:52;12.13;;;7.97;;
73593;SDS011;64760;53.404;23.498;2024-02-26T11:48:15;13.32;;;7.57;;
73593;SDS011;64760;53.404;23.498;2024-02-26T11:53:23;17.00;;;9.70;;
73593;SDS011;64760;53.404;23.498;2024-02-26T11:58:47;14.38;;;8.02;;
73593;SDS011;64760;53.404;23.498;2024-02-26T12:06:55;11.90;;;7.18;;
73593;SDS011;64760;53.404;23.498;2024-02-26T12:09:38;12.57;;;7.80;;
73593;SDS011;64760;53.404;23.498;2024-02-26T12:12:09;15.70;;;7.35;;
73593;SDS011;64760;53.404;23.498;2024-02-26T12:14:40;14.93;;;6.65;;
73593;SDS011;64760;53.404;23.498;2024-02-26T12:17:20;11.45;;;6.53;;
73593;SDS011;64760;53.404;23.498;2024-02-26T12:19:47;11.65;;;6.90;;
73593;SDS011;64760;53.404;23.498;2024-02-26T12:22:14;12.23;;;7.45;;
73593;SDS011;64760;53.404;23.498;2024-02-26T12:24:44;11.43;;;7.20;;
73593;SDS011;64760;53.404;23.498;2024-02-26T12:27:11;10.57;;;5.90;;
73593;SDS011;64760;53.404;23.498;2024-02-26T12:29:37;8.95;;;5.72;;
73593;SDS011;64760;53.404;23.498;2024-02-26T12:32:04;14.57;;;8.48;;
73593;SDS011;64760;53.404;23.498;2024-02-26T12:34:31;11.48;;;7.28;;
73593;SDS011;64760;53.404;23.498;2024-02-26T12:36:57;10.50;;;6.28;;
73593;SDS011;64760;53.404;23.498;2024-02-26T12:39:24;8.27;;;5.38;;
73593;SDS011;64760;53.404;23.498;2024-02-26T12:41:50;9.32;;;4.75;;
73593;SDS011;64760;53.404;23.498;2024-02-26T12:44:17;9.25;;;5.82;;
73593;SDS011;64760;53.404;23.498;2024-02-26T12:46:44;15.27;;;7.57;;
73593;SDS011;64760;53.404;23.498;2024-02-26T12:49:14;9.90;;;5.75;;
73593;SDS011;64760;53.404;23.498;2024-02-26T12:51:43;9.70;;;5.95;;
73593;SDS011;64760;53.404;23.498;2024-02-26T12:54:10;8.57;;;5.50;;
73593;SDS011;64760;53.404;23.498;2024-02-26T12:56:38;9.05;;;5.47;;
73593;SDS011;64760;53.404;23.498;2024-02-26T12:59:05;11.45;;;5.65;;
73593;SDS011;64760;53.404;23.498;2024-02-26T13:01:31;8.75;;;4.78;;
73593;SDS011;64760;53.404;23.498;2024-02-26T13:03:58;8.63;;;5.55;;
73593;SDS011;64760;53.404;23.498;2024-02-26T13:06:26;11.23;;;5.85;;
73593;SDS011;64760;53.404;23.498;2024-02-26T13:08:56;14.82;;;7.20;;
73593;SDS011;64760;53.404;23.498;2024-02-26T13:11:24;10.00;;;6.28;;
73593;SDS011;64760;53.404;23.498;2024-02-26T13:13:51;8.52;;;5.38;;
73593;SDS011;64760;53.404;23.498;2024-02-26T13:16:17;7.03;;;4.85;;
73593;SDS011;64760;53.404;23.498;2024-02-26T13:18:44;6.90;;;4.70;;
73593;SDS011;64760;53.404;23.498;2024-02-26T13:21:13;8.55;;;4.45;;
73593;SDS011;64760;53.404;23.498;2024-02-26T13:23:41;7.68;;;5.40;;
73593;SDS011;64760;53.404;23.498;2024-02-26T13:26:09;8.50;;;4.53;;
73593;SDS011;64760;53.404;23.498;2024-02-26T13:28:38;7.50;;;4.82;;
73593;SDS011;64760;53.404;23.498;2024-02-26T13:31:04;8.90;;;4.45;;
73593;SDS011;64760;53.404;23.498;2024-02-26T13:33:33;6.63;;;3.70;;
73593;SDS011;64760;53.404;23.498;2024-02-26T13:36:00;6.47;;;3.83;;
73593;SDS011;64760;53.404;23.498;2024-02-26T13:38:27;6.35;;;4.00;;
73593;SDS011;64760;53.404;23.498;2024-02-26T13:40:54;6.68;;;4.65;;
73593;SDS011;64760;53.404;23.498;2024-02-26T13:43:20;10.07;;;4.40;;
73593;SDS011;64760;53.404;23.498;2024-02-26T13:45:47;9.82;;;4.93;;
73593;SDS011;64760;53.404;23.498;2024-02-26T13:48:13;7.50;;;4.60;;
73593;SDS011;64760;53.404;23.498;2024-02-26T13:50:41;6.75;;;4.45;;
73593;SDS011;64760;53.404;23.498;2024-02-26T13:53:11;8.18;;;4.38;;
73593;SDS011;64760;53.404;23.498;2024-02-26T13:55:39;9.02;;;4.72;;
73593;SDS011;64760;53.404;23.498;2024-02-26T13:58:08;6.90;;;4.70;;
73593;SDS011;64760;53.404;23.498;2024-02-26T14:00:37;11.25;;;5.30;;
73593;SDS011;64760;53.404;23.498;2024-02-26T14:03:03;10.07;;;5.78;;
73593;SDS011;64760;53.404;23.498;2024-02-26T14:05:30;10.88;;;5.40;;
73593;SDS011;64760;53.404;23.498;2024-02-26T14:07:57;14.75;;;5.63;;
73593;SDS011;64760;53.404;23.498;2024-02-26T14:12:49;10.95;;;6.40;;
73593;SDS011;64760;53.404;23.498;2024-02-26T14:15:15;15.18;;;7.93;;
73593;SDS011;64760;53.404;23.498;2024-02-26T14:17:41;21.52;;;11.90;;
73593;SDS011;64760;53.404;23.498;2024-02-26T14:20:09;16.65;;;9.50;;
73593;SDS011;64760;53.404;23.498;2024-02-26T14:22:35;15.52;;;8.80;;
73593;SDS011;64760;53.404;23.498;2024-02-26T14:25:02;18.55;;;8.52;;
73593;SDS011;64760;53.404;23.498;2024-02-26T14:27:29;16.05;;;9.18;;
73593;SDS011;64760;53.404;23.498;2024-02-26T14:29:57;17.75;;;9.57;;
73593;SDS011;64760;53.404;23.498;2024-02-26T14:32:23;11.63;;;6.18;;
73593;SDS011;64760;53.404;23.498;2024-02-26T14:34:50;15.93;;;6.30;;
73593;SDS011;64760;53.404;23.498;2024-02-26T14:37:16;10.85;;;6.03;;
73593;SDS011;64760;53.404;23.498;2024-02-26T14:39:42;10.32;;;5.85;;
73593;SDS011;64760;53.404;23.498;2024-02-26T14:42:08;11.07;;;5.65;;
73593;SDS011;64760;53.404;23.498;2024-02-26T14:44:35;9.73;;;5.60;;
73593;SDS011;64760;53.404;23.498;2024-02-26T14:47:01;9.90;;;5.88;;
73593;SDS011;64760;53.404;23.498;2024-02-26T14:49:27;10.93;;;6.40;;
73593;SDS011;64760;53.404;23.498;2024-02-26T14:51:55;13.60;;;7.40;;
73593;SDS011;64760;53.404;23.498;2024-02-26T14:54:21;11.20;;;7.20;;